Forside
METAR-TAF:

METAR-TAF

Lufthavne :

Katowice, Polen

Breddekreds: 50-28-27N, længdekreds: 019-04-48E, højde: 284 m

Aktuelle vejr

Denne rapport blev lavet for 36 minutter siden, kl. 07:30 UTC
Vind 4 kt fra nordnordøst, varierende mellem nordnordvest og nordøst
Temperatur 21°C
Fugtighed 60%
Tryk 1021 hPa
Sigt 10 km eller mere
ingen skyer under 1500m og ingen cumulonimbus

METAR: EPKT 260730Z 02004KT 330V050 CAVOK 21/13 Q1021

Tid: 10:06 (08:06 UTC)

Vejrudsigter

Denne rapport blev lavet for 2 timer og 36 minutter siden, kl. 05:30 UTC
Foreløbig gælder fra 26 på 06 UTC til 27 på 06 UTC
Vind 4 kt fra øst
Sigt 10 km eller mere
ingen skyer under 1500m og ingen cumulonimbus
Midlertidig
fra 26 på 12 UTC til 26 på 18 UTC
Vind 15 kt fra varierende retninger med vindstød på up til 30 kt
Sigt: 2500 m
Brudte skyer i en højde af 4000 ft, Cumulonimbus.
tordenbyger, regn,

TAF: EPKT 260530Z 2606/2706 10004KT CAVOK TEMPO 2612/2618 VRB15G30KT 2500 TSRA BKN040CB

Vejrobservationer og prognoser fra mere end 4000 lufthavne (METAR og TAF).

De gule og røde prikker repræsenterer de meteorologiske stationer.

Flyt musen over at se navnet på stationen.

Så klik over at se vejr observationer og prognoser.

At skifte det kort: Klik på de grønne knapper med et sort kors for at zoome ind; på den grønne knap med en bindestreg for at zoome ud; eller på de grønne pile for tilstødende kort.


METAR-TAF: